^^
Station Historical Data
Daily Summary for February 18, 2017 Units:  Both    English   Metric
« Previous Day
Next Day »
Daily Weekly Monthly Yearly Custom
  High: Low: Average:
Temperature: 83.5 °F /  28.6 °C 62.8 °F /  17.1 °C 70.7 °F /  21.5 °C
Dew Point: 66.4 °F /  19.1 °C 55.4 °F /  13 °C 60.7 °F /  15.9 °C
Humidity: 91% 46% 72%
Wind Speed: 12.1mph /  19.5km/h - 3.2mph /  5.1km/h
Wind Gust: 20.0mph /  32.2km/h - -
Wind- - SSE
Pressure: 29.77 in /  1008 hPa 29.59 in /  1001.9 hPa -
Precipitation: 0.29 in /  7.37 mm    
Historical Graphs
 
 
Tabular Data for February 18, 2017
Time Temperature Dew Point Pressure Wind Wind Speed Wind Gust Humidity Rainfall Rate (Hourly) solar Conditions
00:02 67.6 °F /  19.8 °C 59.4 °F /  15.2 °C 29.76in /  1007.7hPa ESE 4.9mph /  7.9km/h 11.0mph /  17.7km/h 75% 0.00in /  0mm 0.0 W/m2
00:08 68.2 °F /  20.1 °C 59.9 °F /  15.5 °C 29.76in /  1007.7hPa SE 4.0mph /  6.4km/h 17.0mph /  27.4km/h 75% 0.00in /  0mm 0.0 W/m2
00:14 68.4 °F /  20.2 °C 60.1 °F /  15.6 °C 29.77in /  1008hPa SE 6.0mph /  9.7km/h 16.0mph /  25.7km/h 75% 0.00in /  0mm 0.0 W/m2
00:20 68.4 °F /  20.2 °C 60.1 °F /  15.6 °C 29.76in /  1007.7hPa SE 8.9mph /  14.3km/h 10.0mph /  16.1km/h 75% 0.00in /  0mm 0.0 W/m2
00:26 68.2 °F /  20.1 °C 58.5 °F /  14.7 °C 29.76in /  1007.7hPa SSE 4.9mph /  7.9km/h 17.0mph /  27.4km/h 71% 0.00in /  0mm 0.0 W/m2
00:32 67.6 °F /  19.8 °C 58.3 °F /  14.6 °C 29.76in /  1007.7hPa SSE 8.9mph /  14.3km/h 12.0mph /  19.3km/h 72% 0.00in /  0mm 0.0 W/m2
00:42 65.5 °F /  18.6 °C 59.5 °F /  15.3 °C 29.77in /  1008hPa SSE 6.9mph /  11.1km/h 11.0mph /  17.7km/h 81% 0.03in /  0.76mm 0.0 W/m2
00:48 64.4 °F /  18 °C 59.2 °F /  15.1 °C 29.76in /  1007.7hPa ESE 6.0mph /  9.7km/h 6.0mph /  9.7km/h 83% 0.04in /  1.02mm 0.0 W/m2
00:54 63.9 °F /  17.7 °C 59.2 °F /  15.1 °C 29.76in /  1007.7hPa SE 2.0mph /  3.2km/h 8.0mph /  12.9km/h 85% 0.05in /  1.27mm 0.0 W/m2
01:00 63.3 °F /  17.4 °C 59.0 °F /  15 °C 29.75in /  1007.3hPa South 0.9mph /  1.4km/h 7.0mph /  11.3km/h 86% 0.05in /  1.27mm 0.0 W/m2
01:06 63.1 °F /  17.3 °C 59.5 °F /  15.3 °C 29.75in /  1007.3hPa SSE 6.9mph /  11.1km/h 7.0mph /  11.3km/h 88% 0.06in /  1.52mm 0.0 W/m2
01:12 63.1 °F /  17.3 °C 59.5 °F /  15.3 °C 29.75in /  1007.3hPa SSE 2.9mph /  4.7km/h 6.0mph /  9.7km/h 88% 0.06in /  1.52mm 0.0 W/m2
01:18 63.0 °F /  17.2 °C 59.7 °F /  15.4 °C 29.75in /  1007.3hPa Calm   1.0mph /  1.6km/h 89% 0.07in /  1.78mm 0.0 W/m2
01:24 63.0 °F /  17.2 °C 59.7 °F /  15.4 °C 29.74in /  1007hPa SSE 4.0mph /  6.4km/h 6.0mph /  9.7km/h 89% 0.08in /  2.03mm 0.0 W/m2
01:30 62.8 °F /  17.1 °C 59.5 °F /  15.3 °C 29.74in /  1007hPa Calm   2.0mph /  3.2km/h 89% 0.09in /  2.29mm 0.0 W/m2
01:36 63.0 °F /  17.2 °C 59.9 °F /  15.5 °C 29.74in /  1007hPa Calm   4.0mph /  6.4km/h 90% 0.07in /  1.78mm 0.0 W/m2
01:42 63.0 °F /  17.2 °C 60.3 °F /  15.7 °C 29.74in /  1007hPa Calm   8.0mph /  12.9km/h 91% 0.06in /  1.52mm 0.0 W/m2
01:48 63.1 °F /  17.3 °C 60.4 °F /  15.8 °C 29.73in /  1006.7hPa SSE 2.9mph /  4.7km/h 5.0mph /  8km/h 91% 0.06in /  1.52mm 0.0 W/m2
01:54 63.1 °F /  17.3 °C 60.4 °F /  15.8 °C 29.72in /  1006.3hPa ESE 2.0mph /  3.2km/h 4.0mph /  6.4km/h 91% 0.05in /  1.27mm 0.0 W/m2
02:00 63.1 °F /  17.3 °C 60.4 °F /  15.8 °C 29.72in /  1006.3hPa SSE 4.9mph /  7.9km/h 8.0mph /  12.9km/h 91% 0.04in /  1.02mm 0.0 W/m2
02:06 63.1 °F /  17.3 °C 60.4 °F /  15.8 °C 29.72in /  1006.3hPa SE 8.9mph /  14.3km/h 9.0mph /  14.5km/h 91% 0.03in /  0.76mm 0.0 W/m2
02:12 63.1 °F /  17.3 °C 60.4 °F /  15.8 °C 29.72in /  1006.3hPa ESE 10.1mph /  16.3km/h 13.0mph /  20.9km/h 91% 0.04in /  1.02mm 0.0 W/m2
02:18 63.3 °F /  17.4 °C 60.3 °F /  15.7 °C 29.72in /  1006.3hPa South 10.1mph /  16.3km/h 15.0mph /  24.1km/h 90% 0.03in /  0.76mm 0.0 W/m2
02:24 63.3 °F /  17.4 °C 60.3 °F /  15.7 °C 29.72in /  1006.3hPa SSE 4.0mph /  6.4km/h 12.0mph /  19.3km/h 90% 0.02in /  0.51mm 0.0 W/m2
02:30 63.3 °F /  17.4 °C 60.3 °F /  15.7 °C 29.72in /  1006.3hPa SSW 6.9mph /  11.1km/h 9.0mph /  14.5km/h 90% 0.02in /  0.51mm 0.0 W/m2
02:36 63.3 °F /  17.4 °C 60.3 °F /  15.7 °C 29.72in /  1006.3hPa SSW 6.0mph /  9.7km/h 7.0mph /  11.3km/h 90% 0.02in /  0.51mm 0.0 W/m2
02:42 63.3 °F /  17.4 °C 60.1 °F /  15.6 °C 29.71in /  1006hPa SSE 2.0mph /  3.2km/h 7.0mph /  11.3km/h 89% 0.02in /  0.51mm 0.0 W/m2
02:48 63.3 °F /  17.4 °C 59.7 °F /  15.4 °C 29.71in /  1006hPa SSE 4.9mph /  7.9km/h 16.0mph /  25.7km/h 88% 0.01in /  0.25mm 0.0 W/m2
02:54 63.7 °F /  17.6 °C 59.7 °F /  15.4 °C 29.71in /  1006hPa SSW 8.9mph /  14.3km/h 14.0mph /  22.5km/h 87% 0.01in /  0.25mm 0.0 W/m2
03:00 63.7 °F /  17.6 °C 59.7 °F /  15.4 °C 29.70in /  1005.6hPa SSE 2.0mph /  3.2km/h 8.0mph /  12.9km/h 87% 0.01in /  0.25mm 0.0 W/m2
03:06 63.9 °F /  17.7 °C 59.9 °F /  15.5 °C 29.70in /  1005.6hPa SSW 2.9mph /  4.7km/h 8.0mph /  12.9km/h 87% 0.00in /  0mm 0.0 W/m2
03:12 63.7 °F /  17.6 °C 59.7 °F /  15.4 °C 29.70in /  1005.6hPa Calm   8.0mph /  12.9km/h 87% 0.00in /  0mm 0.0 W/m2
03:18 63.7 °F /  17.6 °C 59.4 °F /  15.2 °C 29.70in /  1005.6hPa SE 10.1mph /  16.3km/h 20.0mph /  32.2km/h 86% 0.00in /  0mm 0.0 W/m2
03:24 63.7 °F /  17.6 °C 59.4 °F /  15.2 °C 29.69in /  1005.3hPa ESE 6.0mph /  9.7km/h 12.0mph /  19.3km/h 86% 0.00in /  0mm 0.0 W/m2
03:30 63.7 °F /  17.6 °C 59.4 °F /  15.2 °C 29.69in /  1005.3hPa SSE 2.9mph /  4.7km/h 15.0mph /  24.1km/h 86% 0.00in /  0mm 0.0 W/m2
03:36 63.7 °F /  17.6 °C 59.4 °F /  15.2 °C 29.69in /  1005.3hPa ESE 6.9mph /  11.1km/h 13.0mph /  20.9km/h 86% 0.00in /  0mm 0.0 W/m2
03:42 63.7 °F /  17.6 °C 59.4 °F /  15.2 °C 29.68in /  1005hPa South 2.9mph /  4.7km/h 11.0mph /  17.7km/h 86% 0.00in /  0mm 0.0 W/m2
03:48 63.5 °F /  17.5 °C 58.8 °F /  14.9 °C 29.68in /  1005hPa SSE 2.9mph /  4.7km/h 13.0mph /  20.9km/h 85% 0.00in /  0mm 0.0 W/m2
03:54 63.5 °F /  17.5 °C 58.8 °F /  14.9 °C 29.68in /  1005hPa ESE 6.9mph /  11.1km/h 17.0mph /  27.4km/h 85% 0.00in /  0mm 0.0 W/m2
04:00 63.5 °F /  17.5 °C 58.6 °F /  14.8 °C 29.68in /  1005hPa SSW 4.0mph /  6.4km/h 15.0mph /  24.1km/h 84% 0.00in /  0mm 0.0 W/m2
04:06 63.3 °F /  17.4 °C 58.5 °F /  14.7 °C 29.68in /  1005hPa SE 2.0mph /  3.2km/h 12.0mph /  19.3km/h 84% 0.00in /  0mm 0.0 W/m2
04:12 63.5 °F /  17.5 °C 58.6 °F /  14.8 °C 29.68in /  1005hPa Calm   11.0mph /  17.7km/h 84% 0.00in /  0mm 0.0 W/m2
04:18 63.3 °F /  17.4 °C 58.5 °F /  14.7 °C 29.67in /  1004.6hPa SSW 6.0mph /  9.7km/h 20.0mph /  32.2km/h 84% 0.00in /  0mm 0.0 W/m2
04:24 63.5 °F /  17.5 °C 58.3 °F /  14.6 °C 29.68in /  1005hPa Calm   6.0mph /  9.7km/h 83% 0.00in /  0mm 0.0 W/m2
04:30 63.7 °F /  17.6 °C 57.7 °F /  14.3 °C 29.67in /  1004.6hPa South 4.0mph /  6.4km/h 11.0mph /  17.7km/h 81% 0.00in /  0mm 0.0 W/m2
04:36 63.9 °F /  17.7 °C 57.9 °F /  14.4 °C 29.68in /  1005hPa SE 8.1mph /  13km/h 8.1mph /  13km/h 81% 0.00in /  0mm 0.0 W/m2
04:42 63.9 °F /  17.7 °C 57.9 °F /  14.4 °C 29.68in /  1005hPa SE 10.1mph /  16.3km/h 14.0mph /  22.5km/h 81% 0.00in /  0mm 0.0 W/m2
04:49 64.0 °F /  17.8 °C 57.7 °F /  14.3 °C 29.68in /  1005hPa SE 4.9mph /  7.9km/h 11.0mph /  17.7km/h 80% 0.00in /  0mm 0.0 W/m2
04:55 64.0 °F /  17.8 °C 57.0 °F /  13.9 °C 29.68in /  1005hPa Calm   1.0mph /  1.6km/h 78% 0.00in /  0mm 0.0 W/m2
05:01 63.9 °F /  17.7 °C 57.6 °F /  14.2 °C 29.68in /  1005hPa Calm   2.0mph /  3.2km/h 80% 0.00in /  0mm 0.0 W/m2
05:07 63.9 °F /  17.7 °C 56.8 °F /  13.8 °C 29.67in /  1004.6hPa Calm   2.0mph /  3.2km/h 78% 0.00in /  0mm 0.0 W/m2
05:13 64.0 °F /  17.8 °C 57.0 °F /  13.9 °C 29.67in /  1004.6hPa West 2.9mph /  4.7km/h 3.0mph /  4.8km/h 78% 0.00in /  0mm 0.0 W/m2
05:19 64.2 °F /  17.9 °C 56.8 °F /  13.8 °C 29.67in /  1004.6hPa SSE 2.9mph /  4.7km/h 4.0mph /  6.4km/h 77% 0.00in /  0mm 0.0 W/m2
05:25 64.2 °F /  17.9 °C 56.1 °F /  13.4 °C 29.67in /  1004.6hPa NNE 0.9mph /  1.4km/h 3.0mph /  4.8km/h 75% 0.00in /  0mm 0.0 W/m2
05:31 64.6 °F /  18.1 °C 56.1 °F /  13.4 °C 29.67in /  1004.6hPa SE 0.9mph /  1.4km/h 6.0mph /  9.7km/h 74% 0.00in /  0mm 0.0 W/m2
05:37 64.8 °F /  18.2 °C 56.3 °F /  13.5 °C 29.67in /  1004.6hPa Calm   6.0mph /  9.7km/h 74% 0.00in /  0mm 0.0 W/m2
05:43 64.9 °F /  18.3 °C 56.1 °F /  13.4 °C 29.67in /  1004.6hPa SSE 2.0mph /  3.2km/h 9.0mph /  14.5km/h 73% 0.00in /  0mm 0.0 W/m2
05:50 64.9 °F /  18.3 °C 56.1 °F /  13.4 °C 29.67in /  1004.6hPa ESE 4.0mph /  6.4km/h 10.0mph /  16.1km/h 73% 0.00in /  0mm 0.0 W/m2
05:56 64.9 °F /  18.3 °C 55.8 °F /  13.2 °C 29.67in /  1004.6hPa SE 8.1mph /  13km/h 9.0mph /  14.5km/h 72% 0.00in /  0mm 0.0 W/m2
06:02 64.9 °F /  18.3 °C 55.4 °F /  13 °C 29.67in /  1004.6hPa SE 6.0mph /  9.7km/h 10.0mph /  16.1km/h 71% 0.00in /  0mm 0.0 W/m2
06:08 65.3 °F /  18.5 °C 55.6 °F /  13.1 °C 29.67in /  1004.6hPa SSE 2.9mph /  4.7km/h 8.0mph /  12.9km/h 71% 0.00in /  0mm 0.0 W/m2
06:14 65.5 °F /  18.6 °C 56.3 °F /  13.5 °C 29.67in /  1004.6hPa SSE 4.0mph /  6.4km/h 10.0mph /  16.1km/h 72% 0.00in /  0mm 0.0 W/m2
06:20 65.7 °F /  18.7 °C 55.9 °F /  13.3 °C 29.67in /  1004.6hPa Calm   9.0mph /  14.5km/h 71% 0.00in /  0mm 0.0 W/m2
06:26 65.8 °F /  18.8 °C 56.1 °F /  13.4 °C 29.67in /  1004.6hPa SSE 4.0mph /  6.4km/h 8.0mph /  12.9km/h 71% 0.00in /  0mm 0.0 W/m2
06:32 65.8 °F /  18.8 °C 56.5 °F /  13.6 °C 29.67in /  1004.6hPa SSE 2.0mph /  3.2km/h 7.0mph /  11.3km/h 72% 0.00in /  0mm 0.0 W/m2
06:38 65.8 °F /  18.8 °C 57.0 °F /  13.9 °C 29.67in /  1004.6hPa SSW 2.9mph /  4.7km/h 6.0mph /  9.7km/h 73% 0.00in /  0mm 0.0 W/m2
06:45 65.7 °F /  18.7 °C 56.8 °F /  13.8 °C 29.68in /  1005hPa Calm   5.0mph /  8km/h 73% 0.00in /  0mm 0.0 W/m2
06:51 65.5 °F /  18.6 °C 57.0 °F /  13.9 °C 29.68in /  1005hPa Calm   4.0mph /  6.4km/h 74% 0.00in /  0mm 11.0 W/m2
06:57 65.5 °F /  18.6 °C 57.0 °F /  13.9 °C 29.68in /  1005hPa Calm   3.0mph /  4.8km/h 74% 0.00in /  0mm 19.0 W/m2
07:03 65.5 °F /  18.6 °C 57.0 °F /  13.9 °C 29.68in /  1005hPa Calm   3.0mph /  4.8km/h 74% 0.00in /  0mm 25.0 W/m2
07:09 65.7 °F /  18.7 °C 57.2 °F /  14 °C 29.68in /  1005hPa Calm   3.0mph /  4.8km/h 74% 0.00in /  0mm 33.0 W/m2
07:15 65.7 °F /  18.7 °C 57.2 °F /  14 °C 29.69in /  1005.3hPa SSW 0.9mph /  1.4km/h 4.0mph /  6.4km/h 74% 0.00in /  0mm 44.0 W/m2
07:21 65.8 °F /  18.8 °C 57.4 °F /  14.1 °C 29.69in /  1005.3hPa Calm   3.0mph /  4.8km/h 74% 0.00in /  0mm 60.0 W/m2
07:27 66.0 °F /  18.9 °C 57.6 °F /  14.2 °C 29.69in /  1005.3hPa Calm     74% 0.00in /  0mm 70.0 W/m2
07:33 66.4 °F /  19.1 °C 58.3 °F /  14.6 °C 29.70in /  1005.6hPa SE 2.0mph /  3.2km/h 6.0mph /  9.7km/h 75% 0.00in /  0mm 81.0 W/m2
07:39 67.1 °F /  19.5 °C 58.5 °F /  14.7 °C 29.70in /  1005.6hPa Calm   3.0mph /  4.8km/h 74% 0.00in /  0mm 90.0 W/m2
07:45 67.5 °F /  19.7 °C 58.5 °F /  14.7 °C 29.70in /  1005.6hPa SW 2.0mph /  3.2km/h 3.0mph /  4.8km/h 73% 0.00in /  0mm 97.0 W/m2
07:51 67.8 °F /  19.9 °C 58.5 °F /  14.7 °C 29.70in /  1005.6hPa SSW 2.9mph /  4.7km/h 4.0mph /  6.4km/h 72% 0.00in /  0mm 100.0 W/m2
07:57 68.0 °F /  20 °C 57.9 °F /  14.4 °C 29.71in /  1006hPa Calm   3.0mph /  4.8km/h 70% 0.00in /  0mm 104.0 W/m2
08:03 68.2 °F /  20.1 °C 58.5 °F /  14.7 °C 29.71in /  1006hPa SE 0.9mph /  1.4km/h 1.0mph /  1.6km/h 71% 0.00in /  0mm 114.0 W/m2
08:10 68.4 °F /  20.2 °C 58.6 °F /  14.8 °C 29.71in /  1006hPa Calm   5.0mph /  8km/h 71% 0.00in /  0mm 132.0 W/m2
08:16 68.4 °F /  20.2 °C 58.6 °F /  14.8 °C 29.71in /  1006hPa SSE 2.9mph /  4.7km/h 6.0mph /  9.7km/h 71% 0.00in /  0mm 151.0 W/m2
08:22 68.5 °F /  20.3 °C 58.3 °F /  14.6 °C 29.71in /  1006hPa Calm   8.0mph /  12.9km/h 70% 0.00in /  0mm 163.0 W/m2
08:28 68.7 °F /  20.4 °C 59.0 °F /  15 °C 29.72in /  1006.3hPa Calm   1.0mph /  1.6km/h 71% 0.00in /  0mm 176.0 W/m2
08:34 68.9 °F /  20.5 °C 58.3 °F /  14.6 °C 29.72in /  1006.3hPa SW 4.9mph /  7.9km/h 8.0mph /  12.9km/h 69% 0.00in /  0mm 192.0 W/m2
08:40 69.3 °F /  20.7 °C 59.0 °F /  15 °C 29.72in /  1006.3hPa Calm   5.0mph /  8km/h 70% 0.00in /  0mm 193.0 W/m2
08:46 69.4 °F /  20.8 °C 59.2 °F /  15.1 °C 29.72in /  1006.3hPa South 2.9mph /  4.7km/h 7.0mph /  11.3km/h 70% 0.00in /  0mm 218.0 W/m2
08:52 70.2 °F /  21.2 °C 59.9 °F /  15.5 °C 29.72in /  1006.3hPa SSE 2.0mph /  3.2km/h 9.0mph /  14.5km/h 70% 0.00in /  0mm 527.0 W/m2
08:59 70.9 °F /  21.6 °C 60.3 °F /  15.7 °C 29.72in /  1006.3hPa SSE 11.0mph /  17.7km/h 12.0mph /  19.3km/h 69% 0.00in /  0mm 517.0 W/m2
09:05 71.4 °F /  21.9 °C 60.3 °F /  15.7 °C 29.72in /  1006.3hPa ESE 4.9mph /  7.9km/h 10.0mph /  16.1km/h 68% 0.00in /  0mm 501.0 W/m2
09:11 72.1 °F /  22.3 °C 61.0 °F /  16.1 °C 29.72in /  1006.3hPa SSE 2.9mph /  4.7km/h 4.0mph /  6.4km/h 68% 0.00in /  0mm 548.0 W/m2
09:17 72.9 °F /  22.7 °C 61.3 °F /  16.3 °C 29.72in /  1006.3hPa SSE 6.0mph /  9.7km/h 13.0mph /  20.9km/h 67% 0.00in /  0mm 571.0 W/m2
09:26 73.6 °F /  23.1 °C 61.5 °F /  16.4 °C 29.71in /  1006hPa South 8.1mph /  13km/h 11.0mph /  17.7km/h 66% 0.00in /  0mm 613.0 W/m2
09:31 73.8 °F /  23.2 °C 61.3 °F /  16.3 °C 29.71in /  1006hPa SE 8.1mph /  13km/h 11.0mph /  17.7km/h 65% 0.00in /  0mm 605.0 W/m2
09:37 73.9 °F /  23.3 °C 61.9 °F /  16.6 °C 29.71in /  1006hPa ESE 2.9mph /  4.7km/h 8.0mph /  12.9km/h 66% 0.00in /  0mm 526.0 W/m2
09:43 74.1 °F /  23.4 °C 62.1 °F /  16.7 °C 29.71in /  1006hPa SE 4.9mph /  7.9km/h 6.0mph /  9.7km/h 66% 0.00in /  0mm 494.0 W/m2
09:50 74.5 °F /  23.6 °C 62.4 °F /  16.9 °C 29.71in /  1006hPa South 4.0mph /  6.4km/h 9.0mph /  14.5km/h 66% 0.00in /  0mm 668.0 W/m2
09:56 74.8 °F /  23.8 °C 62.2 °F /  16.8 °C 29.71in /  1006hPa South 4.0mph /  6.4km/h 11.0mph /  17.7km/h 65% 0.00in /  0mm 689.0 W/m2
09:58 75.0 °F /  23.9 °C 63.0 °F /  17.2 °C 29.71in /  1006hPa Calm   9.0mph /  14.5km/h 66% 0.00in /  0mm 584.0 W/m2
10:04 75.2 °F /  24 °C 62.6 °F /  17 °C 29.71in /  1006hPa SSE 0.9mph /  1.4km/h 9.0mph /  14.5km/h 65% 0.00in /  0mm 543.0 W/m2
10:10 75.6 °F /  24.2 °C 63.0 °F /  17.2 °C 29.71in /  1006hPa SSW 2.0mph /  3.2km/h 6.0mph /  9.7km/h 65% 0.00in /  0mm 802.0 W/m2
10:16 76.3 °F /  24.6 °C 63.7 °F /  17.6 °C 29.71in /  1006hPa SE 8.1mph /  13km/h 8.1mph /  13km/h 65% 0.00in /  0mm 844.0 W/m2
10:22 77.0 °F /  25 °C 63.5 °F /  17.5 °C 29.71in /  1006hPa South 6.9mph /  11.1km/h 10.0mph /  16.1km/h 63% 0.00in /  0mm 874.0 W/m2
10:28 77.5 °F /  25.3 °C 63.5 °F /  17.5 °C 29.71in /  1006hPa South 2.9mph /  4.7km/h 7.0mph /  11.3km/h 62% 0.00in /  0mm 925.0 W/m2
10:34 77.9 °F /  25.5 °C 63.3 °F /  17.4 °C 29.71in /  1006hPa SSW 8.1mph /  13km/h 10.0mph /  16.1km/h 61% 0.00in /  0mm 650.0 W/m2
10:41 78.3 °F /  25.7 °C 63.7 °F /  17.6 °C 29.71in /  1006hPa SSE 6.0mph /  9.7km/h 8.0mph /  12.9km/h 61% 0.00in /  0mm 694.0 W/m2
10:47 78.1 °F /  25.6 °C 63.5 °F /  17.5 °C 29.71in /  1006hPa SSW 4.0mph /  6.4km/h 8.0mph /  12.9km/h 61% 0.00in /  0mm 816.0 W/m2
10:53 77.9 °F /  25.5 °C 63.3 °F /  17.4 °C 29.71in /  1006hPa SE 2.0mph /  3.2km/h 6.0mph /  9.7km/h 61% 0.00in /  0mm 802.0 W/m2
10:59 77.4 °F /  25.2 °C 62.8 °F /  17.1 °C 29.71in /  1006hPa SE 2.9mph /  4.7km/h 9.0mph /  14.5km/h 61% 0.00in /  0mm 490.0 W/m2
11:11 77.7 °F /  25.4 °C 63.1 °F /  17.3 °C 29.71in /  1006hPa SE 2.9mph /  4.7km/h 8.0mph /  12.9km/h 61% 0.00in /  0mm 613.0 W/m2
11:17 78.1 °F /  25.6 °C 64.0 °F /  17.8 °C 29.71in /  1006hPa South 2.0mph /  3.2km/h 7.0mph /  11.3km/h 62% 0.00in /  0mm 715.0 W/m2
11:24 78.1 °F /  25.6 °C 63.5 °F /  17.5 °C 29.71in /  1006hPa WSW 4.9mph /  7.9km/h 8.0mph /  12.9km/h 61% 0.00in /  0mm 585.0 W/m2
11:32 78.3 °F /  25.7 °C 63.7 °F /  17.6 °C 29.71in /  1006hPa SW 4.9mph /  7.9km/h 9.0mph /  14.5km/h 61% 0.00in /  0mm 450.0 W/m2
11:38 78.3 °F /  25.7 °C 62.8 °F /  17.1 °C 29.70in /  1005.6hPa SE 4.9mph /  7.9km/h 8.0mph /  12.9km/h 59% 0.00in /  0mm 650.0 W/m2
11:44 78.6 °F /  25.9 °C 62.6 °F /  17 °C 29.71in /  1006hPa SSE 0.9mph /  1.4km/h 8.0mph /  12.9km/h 58% 0.00in /  0mm 577.0 W/m2
11:50 79.2 °F /  26.2 °C 62.6 °F /  17 °C 29.70in /  1005.6hPa SW 2.0mph /  3.2km/h 9.0mph /  14.5km/h 57% 0.00in /  0mm 1171.0 W/m2
11:56 79.9 °F /  26.6 °C 62.8 °F /  17.1 °C 29.70in /  1005.6hPa SW 2.9mph /  4.7km/h 8.0mph /  12.9km/h 56% 0.00in /  0mm 1215.0 W/m2
12:02 80.1 °F /  26.7 °C 63.0 °F /  17.2 °C 29.70in /  1005.6hPa SE 2.9mph /  4.7km/h 7.0mph /  11.3km/h 56% 0.00in /  0mm 777.0 W/m2
12:08 80.2 °F /  26.8 °C 62.6 °F /  17 °C 29.70in /  1005.6hPa SE 6.9mph /  11.1km/h 8.0mph /  12.9km/h 55% 0.00in /  0mm 868.0 W/m2
12:31 82.0 °F /  27.8 °C 61.5 °F /  16.4 °C 29.69in /  1005.3hPa SSE 6.9mph /  11.1km/h 13.0mph /  20.9km/h 50% 0.00in /  0mm 1236.0 W/m2
12:37 82.2 °F /  27.9 °C 61.2 °F /  16.2 °C 29.69in /  1005.3hPa ESE 8.1mph /  13km/h 11.0mph /  17.7km/h 49% 0.00in /  0mm 1236.0 W/m2
12:43 82.4 °F /  28 °C 61.3 °F /  16.3 °C 29.68in /  1005hPa SE 2.0mph /  3.2km/h 14.0mph /  22.5km/h 49% 0.00in /  0mm 1278.0 W/m2
12:49 82.2 °F /  27.9 °C 62.8 °F /  17.1 °C 29.68in /  1005hPa South 2.9mph /  4.7km/h 8.0mph /  12.9km/h 52% 0.00in /  0mm 1011.0 W/m2
12:53 81.9 °F /  27.7 °C 63.0 °F /  17.2 °C 29.67in /  1004.6hPa SW 2.9mph /  4.7km/h 7.0mph /  11.3km/h 53% 0.00in /  0mm 1230.0 W/m2
13:10 82.6 °F /  28.1 °C 61.0 °F /  16.1 °C 29.67in /  1004.6hPa West 4.9mph /  7.9km/h 6.0mph /  9.7km/h 48% 0.00in /  0mm 1150.0 W/m2
13:16 83.1 °F /  28.4 °C 60.3 °F /  15.7 °C 29.67in /  1004.6hPa South 4.0mph /  6.4km/h 13.0mph /  20.9km/h 46% 0.00in /  0mm 990.0 W/m2
13:22 83.5 °F /  28.6 °C 61.2 °F /  16.2 °C 29.67in /  1004.6hPa SE 12.1mph /  19.5km/h 14.0mph /  22.5km/h 47% 0.00in /  0mm 661.0 W/m2
14:36 73.6 °F /  23.1 °C 64.4 °F /  18 °C 29.64in /  1003.6hPa Calm   6.0mph /  9.7km/h 73% 0.07in /  1.78mm 144.0 W/m2
14:42 72.3 °F /  22.4 °C 65.8 °F /  18.8 °C 29.64in /  1003.6hPa Calm   4.0mph /  6.4km/h 80% 0.07in /  1.78mm 190.0 W/m2
14:48 71.8 °F /  22.1 °C 66.0 °F /  18.9 °C 29.63in /  1003.3hPa Calm     82% 0.07in /  1.78mm 352.0 W/m2
14:54 72.0 °F /  22.2 °C 66.2 °F /  19 °C 29.62in /  1002.9hPa ESE 4.0mph /  6.4km/h 5.0mph /  8km/h 82% 0.07in /  1.78mm 301.0 W/m2
15:00 72.1 °F /  22.3 °C 66.0 °F /  18.9 °C 29.62in /  1002.9hPa SSE 4.9mph /  7.9km/h 5.0mph /  8km/h 81% 0.07in /  1.78mm 195.0 W/m2
15:06 72.5 °F /  22.5 °C 66.4 °F /  19.1 °C 29.62in /  1002.9hPa South 0.9mph /  1.4km/h 3.0mph /  4.8km/h 81% 0.07in /  1.78mm 216.0 W/m2
15:12 72.7 °F /  22.6 °C 65.8 °F /  18.8 °C 29.61in /  1002.6hPa Calm   6.0mph /  9.7km/h 79% 0.07in /  1.78mm 287.0 W/m2
15:19 73.2 °F /  22.9 °C 65.7 °F /  18.7 °C 29.61in /  1002.6hPa SE 4.9mph /  7.9km/h 11.0mph /  17.7km/h 77% 0.07in /  1.78mm 334.0 W/m2
15:25 73.8 °F /  23.2 °C 65.3 °F /  18.5 °C 29.61in /  1002.6hPa SE 4.9mph /  7.9km/h 7.0mph /  11.3km/h 75% 0.06in /  1.52mm 283.0 W/m2
15:31 73.9 °F /  23.3 °C 64.8 °F /  18.2 °C 29.61in /  1002.6hPa SE 6.9mph /  11.1km/h 11.0mph /  17.7km/h 73% 0.02in /  0.51mm 427.0 W/m2
15:37 74.8 °F /  23.8 °C 64.8 °F /  18.2 °C 29.62in /  1002.9hPa SSW 4.9mph /  7.9km/h 12.0mph /  19.3km/h 71% 0.00in /  0mm 72.0 W/m2
15:43 73.2 °F /  22.9 °C 64.8 °F /  18.2 °C 29.62in /  1002.9hPa SE 0.9mph /  1.4km/h 7.0mph /  11.3km/h 75% 0.12in /  3.05mm 54.0 W/m2
15:49 71.2 °F /  21.8 °C 64.8 °F /  18.2 °C 29.62in /  1002.9hPa Calm   1.0mph /  1.6km/h 80% 0.12in /  3.05mm 83.0 W/m2
15:56 70.5 °F /  21.4 °C 65.8 °F /  18.8 °C 29.61in /  1002.6hPa Calm   1.0mph /  1.6km/h 85% 0.12in /  3.05mm 137.0 W/m2
16:02 70.3 °F /  21.3 °C 66.0 °F /  18.9 °C 29.60in /  1002.3hPa Calm   4.0mph /  6.4km/h 86% 0.12in /  3.05mm 172.0 W/m2
16:08 70.3 °F /  21.3 °C 66.0 °F /  18.9 °C 29.60in /  1002.3hPa SSE 2.9mph /  4.7km/h 8.0mph /  12.9km/h 86% 0.12in /  3.05mm 171.0 W/m2
16:14 70.3 °F /  21.3 °C 66.0 °F /  18.9 °C 29.60in /  1002.3hPa SE 0.9mph /  1.4km/h 4.0mph /  6.4km/h 86% 0.12in /  3.05mm 171.0 W/m2
16:20 70.5 °F /  21.4 °C 65.5 °F /  18.6 °C 29.59in /  1001.9hPa South 4.0mph /  6.4km/h 9.0mph /  14.5km/h 84% 0.12in /  3.05mm 165.0 W/m2
16:26 70.9 °F /  21.6 °C 65.1 °F /  18.4 °C 29.60in /  1002.3hPa SE 4.9mph /  7.9km/h 9.0mph /  14.5km/h 82% 0.12in /  3.05mm 149.0 W/m2
16:32 71.2 °F /  21.8 °C 65.5 °F /  18.6 °C 29.60in /  1002.3hPa SSE 2.9mph /  4.7km/h 10.0mph /  16.1km/h 82% 0.12in /  3.05mm 134.0 W/m2
16:38 71.4 °F /  21.9 °C 64.2 °F /  17.9 °C 29.60in /  1002.3hPa NE 2.0mph /  3.2km/h 9.0mph /  14.5km/h 78% 0.06in /  1.52mm 91.0 W/m2
16:47 71.6 °F /  22 °C 64.8 °F /  18.2 °C 29.60in /  1002.3hPa South 2.0mph /  3.2km/h 5.0mph /  8km/h 79% 0.00in /  0mm 69.0 W/m2
16:52 71.6 °F /  22 °C 64.8 °F /  18.2 °C 29.59in /  1001.9hPa East 2.0mph /  3.2km/h 6.0mph /  9.7km/h 79% 0.00in /  0mm 69.0 W/m2
16:59 72.0 °F /  22.2 °C 64.8 °F /  18.2 °C 29.59in /  1001.9hPa South 0.9mph /  1.4km/h 6.0mph /  9.7km/h 78% 0.00in /  0mm 441.0 W/m2
17:05 72.9 °F /  22.7 °C 64.8 °F /  18.2 °C 29.59in /  1001.9hPa Calm   4.0mph /  6.4km/h 76% 0.00in /  0mm 410.0 W/m2
17:11 74.1 °F /  23.4 °C 65.7 °F /  18.7 °C 29.59in /  1001.9hPa SE 2.0mph /  3.2km/h 8.0mph /  12.9km/h 75% 0.00in /  0mm 475.0 W/m2
17:17 75.0 °F /  23.9 °C 65.8 °F /  18.8 °C 29.59in /  1001.9hPa SE 4.0mph /  6.4km/h 9.0mph /  14.5km/h 73% 0.00in /  0mm 564.0 W/m2
17:23 75.9 °F /  24.4 °C 63.7 °F /  17.6 °C 29.59in /  1001.9hPa SSE 6.9mph /  11.1km/h 14.0mph /  22.5km/h 66% 0.00in /  0mm 559.0 W/m2
17:30 76.3 °F /  24.6 °C 64.0 °F /  17.8 °C 29.59in /  1001.9hPa WSW 0.9mph /  1.4km/h 12.0mph /  19.3km/h 66% 0.00in /  0mm 482.0 W/m2
17:36 75.9 °F /  24.4 °C 63.7 °F /  17.6 °C 29.59in /  1001.9hPa SSE 2.9mph /  4.7km/h 6.0mph /  9.7km/h 66% 0.00in /  0mm 74.0 W/m2
17:42 75.6 °F /  24.2 °C 63.3 °F /  17.4 °C 29.59in /  1001.9hPa SE 2.9mph /  4.7km/h 11.0mph /  17.7km/h 66% 0.00in /  0mm 373.0 W/m2
17:48 76.1 °F /  24.5 °C 62.6 °F /  17 °C 29.60in /  1002.3hPa SE 6.0mph /  9.7km/h 9.0mph /  14.5km/h 63% 0.00in /  0mm 380.0 W/m2
17:54 76.8 °F /  24.9 °C 62.4 °F /  16.9 °C 29.60in /  1002.3hPa SE 6.0mph /  9.7km/h 10.0mph /  16.1km/h 61% 0.00in /  0mm 114.0 W/m2
18:00 76.6 °F /  24.8 °C 61.2 °F /  16.2 °C 29.60in /  1002.3hPa SSE 6.0mph /  9.7km/h 12.0mph /  19.3km/h 59% 0.00in /  0mm 60.0 W/m2
18:06 76.3 °F /  24.6 °C 61.3 °F /  16.3 °C 29.61in /  1002.6hPa NW 2.0mph /  3.2km/h 13.0mph /  20.9km/h 60% 0.00in /  0mm 47.0 W/m2
18:18 75.6 °F /  24.2 °C 61.2 °F /  16.2 °C 29.61in /  1002.6hPa SSE 4.9mph /  7.9km/h 9.0mph /  14.5km/h 61% 0.00in /  0mm 60.0 W/m2
18:24 75.7 °F /  24.3 °C 60.8 °F /  16 °C 29.62in /  1002.9hPa SSE 2.0mph /  3.2km/h 11.0mph /  17.7km/h 60% 0.00in /  0mm 67.0 W/m2
18:30 75.7 °F /  24.3 °C 60.8 °F /  16 °C 29.62in /  1002.9hPa SSE 2.9mph /  4.7km/h 13.0mph /  20.9km/h 60% 0.00in /  0mm 67.0 W/m2
18:38 75.9 °F /  24.4 °C 60.1 °F /  15.6 °C 29.62in /  1002.9hPa SSE 8.1mph /  13km/h 15.0mph /  24.1km/h 58% 0.00in /  0mm 62.0 W/m2
18:45 75.9 °F /  24.4 °C 59.5 °F /  15.3 °C 29.62in /  1002.9hPa South 0.9mph /  1.4km/h 10.0mph /  16.1km/h 57% 0.00in /  0mm 56.0 W/m2
18:51 75.9 °F /  24.4 °C 59.5 °F /  15.3 °C 29.62in /  1002.9hPa Calm   9.0mph /  14.5km/h 57% 0.00in /  0mm 42.0 W/m2
18:57 75.9 °F /  24.4 °C 59.5 °F /  15.3 °C 29.62in /  1002.9hPa ESE 6.0mph /  9.7km/h 12.0mph /  19.3km/h 57% 0.00in /  0mm 32.0 W/m2
19:01 75.9 °F /  24.4 °C 60.1 °F /  15.6 °C 29.62in /  1002.9hPa SW 4.0mph /  6.4km/h 6.0mph /  9.7km/h 58% 0.00in /  0mm 26.0 W/m2
19:07 75.7 °F /  24.3 °C 60.4 °F /  15.8 °C 29.62in /  1002.9hPa South 4.0mph /  6.4km/h 8.0mph /  12.9km/h 59% 0.00in /  0mm 19.0 W/m2
19:13 75.6 °F /  24.2 °C 60.3 °F /  15.7 °C 29.62in /  1002.9hPa SE 2.0mph /  3.2km/h 8.0mph /  12.9km/h 59% 0.00in /  0mm 11.0 W/m2
19:15 75.6 °F /  24.2 °C 60.6 °F /  15.9 °C 29.62in /  1002.9hPa Calm   6.0mph /  9.7km/h 60% 0.00in /  0mm 9.0 W/m2
19:23 75.0 °F /  23.9 °C 60.3 °F /  15.7 °C 29.63in /  1003.3hPa South 6.9mph /  11.1km/h 11.0mph /  17.7km/h 60% 0.00in /  0mm 0.0 W/m2
19:29 75.0 °F /  23.9 °C 60.3 °F /  15.7 °C 29.63in /  1003.3hPa SSW 4.0mph /  6.4km/h 7.0mph /  11.3km/h 60% 0.00in /  0mm 0.0 W/m2
19:35 74.8 °F /  23.8 °C 60.1 °F /  15.6 °C 29.63in /  1003.3hPa SSE 2.0mph /  3.2km/h 12.0mph /  19.3km/h 60% 0.00in /  0mm 0.0 W/m2
19:41 74.8 °F /  23.8 °C 60.4 °F /  15.8 °C 29.64in /  1003.6hPa SE 2.9mph /  4.7km/h 6.0mph /  9.7km/h 61% 0.00in /  0mm 0.0 W/m2
19:48 74.7 °F /  23.7 °C 60.8 °F /  16 °C 29.64in /  1003.6hPa SE 2.0mph /  3.2km/h 2.0mph /  3.2km/h 62% 0.00in /  0mm 0.0 W/m2
19:54 74.5 °F /  23.6 °C 61.0 °F /  16.1 °C 29.65in /  1003.9hPa SSE 2.0mph /  3.2km/h 2.0mph /  3.2km/h 63% 0.00in /  0mm 0.0 W/m2
20:00 74.1 °F /  23.4 °C 60.3 °F /  15.7 °C 29.65in /  1003.9hPa SE 4.9mph /  7.9km/h 8.0mph /  12.9km/h 62% 0.00in /  0mm 0.0 W/m2
20:06 74.1 °F /  23.4 °C 60.3 °F /  15.7 °C 29.65in /  1003.9hPa Calm   1.0mph /  1.6km/h 62% 0.00in /  0mm 0.0 W/m2
20:12 73.9 °F /  23.3 °C 60.6 °F /  15.9 °C 29.65in /  1003.9hPa Calm   2.0mph /  3.2km/h 63% 0.00in /  0mm 0.0 W/m2
20:18 73.8 °F /  23.2 °C 60.4 °F /  15.8 °C 29.65in /  1003.9hPa ESE 6.0mph /  9.7km/h 6.0mph /  9.7km/h 63% 0.00in /  0mm 0.0 W/m2
20:24 73.6 °F /  23.1 °C 60.3 °F /  15.7 °C 29.65in /  1003.9hPa SSE 2.9mph /  4.7km/h 3.0mph /  4.8km/h 63% 0.00in /  0mm 0.0 W/m2
20:30 73.6 °F /  23.1 °C 60.6 °F /  15.9 °C 29.65in /  1003.9hPa Calm     64% 0.00in /  0mm 0.0 W/m2
20:36 73.2 °F /  22.9 °C 60.8 °F /  16 °C 29.65in /  1003.9hPa Calm   1.0mph /  1.6km/h 65% 0.00in /  0mm 0.0 W/m2
20:43 73.0 °F /  22.8 °C 59.7 °F /  15.4 °C 29.65in /  1003.9hPa Calm   4.0mph /  6.4km/h 63% 0.00in /  0mm 0.0 W/m2
20:49 73.0 °F /  22.8 °C 59.7 °F /  15.4 °C 29.66in /  1004.3hPa Calm   2.0mph /  3.2km/h 63% 0.00in /  0mm 0.0 W/m2
20:55 73.0 °F /  22.8 °C 59.2 °F /  15.1 °C 29.65in /  1003.9hPa Calm   5.0mph /  8km/h 62% 0.00in /  0mm 0.0 W/m2
21:01 73.0 °F /  22.8 °C 59.7 °F /  15.4 °C 29.66in /  1004.3hPa Calm     63% 0.00in /  0mm 0.0 W/m2
21:07 73.0 °F /  22.8 °C 60.1 °F /  15.6 °C 29.66in /  1004.3hPa West 2.0mph /  3.2km/h 3.0mph /  4.8km/h 64% 0.00in /  0mm 0.0 W/m2
21:13 72.9 °F /  22.7 °C 59.5 °F /  15.3 °C 29.66in /  1004.3hPa Calm   2.0mph /  3.2km/h 63% 0.00in /  0mm 0.0 W/m2
21:19 72.9 °F /  22.7 °C 59.9 °F /  15.5 °C 29.67in /  1004.6hPa Calm     64% 0.00in /  0mm 0.0 W/m2
21:25 72.9 °F /  22.7 °C 60.4 °F /  15.8 °C 29.67in /  1004.6hPa SW 0.9mph /  1.4km/h 5.0mph /  8km/h 65% 0.00in /  0mm 0.0 W/m2
21:32 72.9 °F /  22.7 °C 60.4 °F /  15.8 °C 29.67in /  1004.6hPa NE 0.9mph /  1.4km/h 2.0mph /  3.2km/h 65% 0.00in /  0mm 0.0 W/m2
21:38 72.7 °F /  22.6 °C 59.4 °F /  15.2 °C 29.68in /  1005hPa SE 0.9mph /  1.4km/h 6.0mph /  9.7km/h 63% 0.00in /  0mm 0.0 W/m2
21:44 72.9 °F /  22.7 °C 59.0 °F /  15 °C 29.68in /  1005hPa South 0.9mph /  1.4km/h 2.0mph /  3.2km/h 62% 0.00in /  0mm 0.0 W/m2
21:50 72.9 °F /  22.7 °C 59.0 °F /  15 °C 29.68in /  1005hPa ESE 2.0mph /  3.2km/h 5.0mph /  8km/h 62% 0.00in /  0mm 0.0 W/m2
21:56 72.9 °F /  22.7 °C 59.5 °F /  15.3 °C 29.69in /  1005.3hPa SSE 4.0mph /  6.4km/h 4.0mph /  6.4km/h 63% 0.00in /  0mm 0.0 W/m2
22:02 72.9 °F /  22.7 °C 59.5 °F /  15.3 °C 29.69in /  1005.3hPa ESE 11.0mph /  17.7km/h 11.0mph /  17.7km/h 63% 0.00in /  0mm 0.0 W/m2
22:09 72.9 °F /  22.7 °C 59.5 °F /  15.3 °C 29.68in /  1005hPa ENE 4.0mph /  6.4km/h 7.0mph /  11.3km/h 63% 0.00in /  0mm 0.0 W/m2
22:15 73.0 °F /  22.8 °C 59.7 °F /  15.4 °C 29.68in /  1005hPa SSE 2.0mph /  3.2km/h 4.0mph /  6.4km/h 63% 0.00in /  0mm 0.0 W/m2
22:21 72.9 °F /  22.7 °C 59.9 °F /  15.5 °C 29.68in /  1005hPa ESE 2.9mph /  4.7km/h 9.0mph /  14.5km/h 64% 0.00in /  0mm 0.0 W/m2
22:27 72.9 °F /  22.7 °C 60.4 °F /  15.8 °C 29.68in /  1005hPa SE 0.9mph /  1.4km/h 4.0mph /  6.4km/h 65% 0.00in /  0mm 0.0 W/m2
22:33 72.7 °F /  22.6 °C 60.3 °F /  15.7 °C 29.68in /  1005hPa SE 0.9mph /  1.4km/h 4.0mph /  6.4km/h 65% 0.00in /  0mm 0.0 W/m2
22:45 72.5 °F /  22.5 °C 61.0 °F /  16.1 °C 29.68in /  1005hPa Calm   3.0mph /  4.8km/h 67% 0.00in /  0mm 0.0 W/m2
22:52 72.3 °F /  22.4 °C 60.8 °F /  16 °C 29.68in /  1005hPa SE 2.0mph /  3.2km/h 4.0mph /  6.4km/h 67% 0.00in /  0mm 0.0 W/m2
22:58 72.3 °F /  22.4 °C 61.2 °F /  16.2 °C 29.69in /  1005.3hPa SSE 4.9mph /  7.9km/h 6.0mph /  9.7km/h 68% 0.00in /  0mm 0.0 W/m2
23:04 72.1 °F /  22.3 °C 61.0 °F /  16.1 °C 29.69in /  1005.3hPa SE 4.9mph /  7.9km/h 5.0mph /  8km/h 68% 0.00in /  0mm 0.0 W/m2
23:10 72.1 °F /  22.3 °C 61.0 °F /  16.1 °C 29.68in /  1005hPa East 4.9mph /  7.9km/h 9.0mph /  14.5km/h 68% 0.00in /  0mm 0.0 W/m2
23:16 72.0 °F /  22.2 °C 61.2 °F /  16.2 °C 29.68in /  1005hPa East 2.0mph /  3.2km/h 6.0mph /  9.7km/h 69% 0.00in /  0mm 0.0 W/m2
23:22 72.0 °F /  22.2 °C 62.1 °F /  16.7 °C 29.69in /  1005.3hPa NE 0.9mph /  1.4km/h 5.0mph /  8km/h 71% 0.00in /  0mm 0.0 W/m2
23:28 71.4 °F /  21.9 °C 62.8 °F /  17.1 °C 29.68in /  1005hPa Calm   3.0mph /  4.8km/h 74% 0.00in /  0mm 0.0 W/m2
23:34 70.9 °F /  21.6 °C 63.0 °F /  17.2 °C 29.68in /  1005hPa ENE 2.9mph /  4.7km/h 4.0mph /  6.4km/h 76% 0.00in /  0mm 0.0 W/m2
23:41 70.0 °F /  21.1 °C 62.8 °F /  17.1 °C 29.68in /  1005hPa Calm   4.0mph /  6.4km/h 78% 0.00in /  0mm 0.0 W/m2
23:47 69.6 °F /  20.9 °C 62.8 °F /  17.1 °C 29.68in /  1005hPa Calm   6.0mph /  9.7km/h 79% 0.00in /  0mm 0.0 W/m2
23:53 69.3 °F /  20.7 °C 62.8 °F /  17.1 °C 29.68in /  1005hPa East 4.0mph /  6.4km/h 5.0mph /  8km/h 80% 0.00in /  0mm 0.0 W/m2
23:59 69.1 °F /  20.6 °C 63.0 °F /  17.2 °C 29.67in /  1004.6hPa Calm   2.0mph /  3.2km/h 81% 0.00in /  0mm 0.0 W/m2
Olympia, Windhoek, Namibia
Compliments of Weather Underground - 3 mb